• Join FlightAware (Why Join?)
  • Login
  • US Flag 
03:14AM EDT


 

Airport Tracker/Info


-or-


 

Live Flight TrackerFlight Track Log ✈ UCA4771 ✈ 13-Aug-2014 ✈ KSYR - KEWR

Flight Track Log - Related Links

Times and Time Zones

All times are in EDT time to prevent confusion due to time zone crossing. See the UCA4771 flight status page for this flight to view local times or setup timezone preferences in your user account.

Time Position Orientation Groundspeed Altitude Reporting Facility
EDT Latitude Longitude Course Direction KTS MPH feet Rate Location/Type
02:34PM 43.1075 -76.1217 269° West 125 144 1,100  Level Boston Center
02:35PM 43.1067 -76.1767 269° West 136 157 2,600 7,500 Climbing Boston Center
02:36PM 43.1036 -76.2197 264° West 150 173 15,000 1,920 Climbing Boston Center
02:36PM 43.1036 -76.2314 270° West 158 182 4,600 -9,120 Descending Boston Center
02:37PM 43.0919 -76.2608 242° Southwest 151 174 5,600 1,740 Climbing Boston Center
02:37PM 43.0811 -76.2767 227° Southwest 149 171 6,400 1,620 Climbing Boston Center
02:38PM 43.0553 -76.2675 165° South 164 189 7,300 1,740 Climbing Boston Center
02:39PM 43.0231 -76.1983 122° Southeast 174 200 9,600 1,380 Climbing Boston Center
02:40PM 42.9939 -76.1289 120° Southeast 202 232 10,200 1,140 Climbing Boston Center
02:41PM 42.9644 -76.0539 118° Southeast 225 259 12,000 1,740 Climbing Boston Center
02:42PM 42.9375 -75.9869 119° Southeast 206 237 13,800 1,440 Climbing Boston Center
02:43PM 42.9011 -75.9381 135° Southeast 191 220 15,000 540 Climbing Boston Center
02:44PM 42.8503 -75.8900 145° Southeast 216 249 15,000  Level Boston Center
02:45PM 42.7933 -75.8314 143° Southeast 249 287 15,000  Level Boston Center
02:46PM 42.7300 -75.7844 151° Southeast 256 295 15,000  Level Boston Center
02:47PM 42.6528 -75.7303 153° Southeast 257 296 15,000  Level Boston Center
02:48PM 42.5883 -75.6842 152° Southeast 260 299 15,000 -420 Level Boston Center
02:49PM 42.5256 -75.6414 153° Southeast 261 300 14,200 -960 Descending Boston Center
02:50PM 42.4575 -75.5939 153° Southeast 270 311 13,100 -600 Descending Boston Center
02:51PM 42.3931 -75.5461 151° Southeast 268 308 13,000 -60 Descending Boston Center
02:52PM 42.3281 -75.5003 152° Southeast 266 306 13,000  Level Boston Center
02:53PM 42.2653 -75.4561 152° Southeast 259 298 13,000  Level Boston Center
02:55PM 42.1892 -75.4044 153° Southeast 257 296 13,000  Level Boston Center
02:56PM 42.1258 -75.3606 153° Southeast 255 293 13,000  Level Boston Center
02:57PM 42.0647 -75.3161 152° Southeast 253 291 13,000  Level Boston Center
02:58PM 42.0292 -75.2319 120° Southeast 259 298 13,000  Level Boston Center
02:59PM 41.9956 -75.1281 113° Southeast 260 299 13,000  Level Boston Center
03:00PM 41.9608 -75.0425 119° Southeast 261 300 13,000 -60 Level Boston Center
03:01PM 41.9308 -74.9544 115° Southeast 261 300 12,900 -540 Descending Boston Center
03:02PM 41.8642 -74.9022 150° Southeast 261 300 11,900 -1,200 Descending Boston Center
03:03PM 41.7978 -74.8589 154° Southeast 262 302 10,500 -1,200 Descending Boston Center
03:04PM 41.7322 -74.8136 153° Southeast 266 306 9,500 -1,020 Descending Boston Center
03:05PM 41.6656 -74.7661 152° Southeast 258 297 8,500 -960 Descending Boston Center
03:06PM 41.6047 -74.7256 154° Southeast 250 288 7,600 -960 Descending Boston Center
03:07PM 41.5422 -74.6831 153° Southeast 250 288 6,600 -840 Descending Boston Center
03:08PM 41.4747 -74.6369 153° Southeast 251 289 6,000 -360 Descending Boston Center
03:09PM 41.4133 -74.5944 153° Southeast 251 289 5,900  Descending Boston Center
03:10PM 41.3500 -74.6167 195° South 234 269 6,000  Climbing New York TRACON
03:11PM 41.2833 -74.6333 191° South 231 266 6,000  Level New York TRACON
03:12PM 41.2167 -74.6333 180° South 243 280 6,000  Level New York TRACON
03:13PM 41.1500 -74.6167 169° South 244 281 6,000 -60 Level New York TRACON
03:14PM 41.1500 -74.5167 90° East 261 300 5,900 -540 Descending New York TRACON
03:15PM 41.1500 -74.4333 90° East 254 292 5,000 -480 Descending New York TRACON
03:16PM 41.1500 -74.3333 90° East 245 282 5,000  Level New York TRACON
03:17PM 41.1000 -74.2667 135° Southeast 244 281 5,000 -240 Level New York TRACON
03:18PM 41.0500 -74.2167 143° Southeast 250 288 4,600 -540 Descending New York TRACON
03:19PM 40.9833 -74.1667 150° Southeast 246 283 4,000 -660 Descending New York TRACON
03:20PM 40.9333 -74.1333 153° Southeast 237 273 3,300 -600 Descending New York TRACON
03:21PM 40.8667 -74.1000 159° South 239 275 2,900 -480 Descending New York TRACON
03:22PM 40.8167 -74.0833 166° South 227 261 2,400 -780 Descending New York TRACON
03:23PM 40.7667 -74.1167 207° Southwest 191 220 1,400 -960 Descending New York TRACON
03:24PM 40.7167 -74.1500 207° Southwest 155 178 500 -900 Descending New York TRACON
03:26PM 40.6925 -74.1687 196° South  Level Estimated
03:33PM 40.6925 -74.1687 196° South  Level Estimated